Time;durP1;ratioP1;P1;durP2;ratioP2;P2;SDS_P1;SDS_P2;PMS_P1;PMS_P2;Temp;Humidity;BMP_temperature;BMP_pressure;BME280_temperature;BME280_humidity;BME280_pressure;Samples;Min_cycle;Max_cycle;Signal;HPM_P1;HPM_P2
2022/04/23 00:00:21;;;;;;;13.75;7.40;;;7.30;74.10;;;;;;4084860;28;20111;-87
2022/04/23 00:02:21;;;;;;;13.85;7.53;;;7.30;74.20;;;;;;4085212;28;20126;-86
2022/04/23 00:04:22;;;;;;;23.98;7.97;;;7.20;74.60;;;;;;4088630;28;20027;-86
2022/04/23 00:06:23;;;;;;;16.63;7.25;;;7.30;74.70;;;;;;4081069;28;20163;-87
2022/04/23 00:08:24;;;;;;;14.60;7.25;;;7.30;74.70;;;;;;4089050;28;20499;-87
2022/04/23 00:10:24;;;;;;;12.93;7.20;;;7.30;74.80;;;;;;4085430;28;20039;-87
2022/04/23 00:12:25;;;;;;;20.70;7.72;;;7.10;74.60;;;;;;4102487;28;20539;-87
2022/04/23 00:14:27;;;;;;;16.63;7.65;;;7.10;74.60;;;;;;4092374;28;20720;-87
2022/04/23 00:16:27;;;;;;;14.55;7.90;;;7.20;74.50;;;;;;4085549;28;20023;-87
2022/04/23 00:18:28;;;;;;;13.60;7.40;;;7.10;74.30;;;;;;4088910;28;20057;-87
2022/04/23 00:20:30;;;;;;;16.90;8.20;;;7.20;74.20;;;;;;4082696;28;20072;-87
2022/04/23 00:22:31;;;;;;;13.07;7.63;;;7.20;74.00;;;;;;4082945;28;20031;-85
2022/04/23 00:24:32;;;;;;;20.60;8.00;;;7.20;73.70;;;;;;4098904;28;20084;-86
2022/04/23 00:26:32;;;;;;;14.55;8.27;;;7.20;73.50;;;;;;4082664;28;20209;-86
2022/04/23 00:28:33;;;;;;;16.80;8.60;;;7.30;73.60;;;;;;4085742;28;20035;-87
2022/04/23 00:30:34;;;;;;;14.30;7.95;;;7.30;73.70;;;;;;4078412;28;20043;-87
2022/04/23 00:32:34;;;;;;;15.57;8.18;;;7.10;73.70;;;;;;4075709;28;20583;-87
2022/04/23 00:34:35;;;;;;;13.30;8.18;;;7.10;73.60;;;;;;4096726;28;20041;-86
2022/04/23 00:36:36;;;;;;;20.45;8.80;;;7.20;73.40;;;;;;4091026;28;20038;-86
2022/04/23 00:38:39;;;;;;;17.40;8.40;;;7.20;73.50;;;;;;4095416;28;20035;-86
2022/04/23 00:40:40;;;;;;;17.15;7.75;;;7.20;73.30;;;;;;4114121;28;20105;-86
2022/04/23 00:42:52;;;;;;;15.40;7.70;;;7.20;73.70;;;;;;4089438;28;20027;-87
2022/04/23 00:44:53;;;;;;;17.02;8.20;;;7.30;73.70;;;;;;4093481;28;20046;-88
2022/04/23 00:46:54;;;;;;;15.88;8.48;;;7.20;73.70;;;;;;4095315;28;20090;-87
2022/04/23 00:48:54;;;;;;;22.92;9.10;;;7.20;73.80;;;;;;4109237;28;20043;-87
2022/04/23 00:50:57;;;;;;;18.98;8.30;;;7.20;73.90;;;;;;4105891;28;20109;-86
2022/04/23 00:53:01;;;;;;;15.60;7.72;;;7.10;73.90;;;;;;4099947;28;21045;-86
2022/04/23 00:55:04;;;;;;;20.05;8.70;;;7.20;73.70;;;;;;4089787;28;20090;-87
2022/04/23 00:57:05;;;;;;;14.50;7.53;;;7.20;73.60;;;;;;4101495;28;20047;-87
2022/04/23 00:59:13;;;;;;;17.85;8.02;;;7.10;73.50;;;;;;4086638;28;20523;-87
2022/04/23 01:01:14;;;;;;;16.92;8.13;;;7.30;73.80;;;;;;4085717;28;20039;-88
2022/04/23 01:03:15;;;;;;;18.95;8.52;;;7.20;73.70;;;;;;4083798;28;20595;-88
2022/04/23 01:05:16;;;;;;;17.92;8.50;;;7.20;73.70;;;;;;4103130;28;20035;-87
2022/04/23 01:07:16;;;;;;;15.43;8.43;;;7.10;74.00;;;;;;4086286;28;20153;-86
2022/04/23 01:09:17;;;;;;;18.92;7.45;;;7.10;74.00;;;;;;4086166;28;20110;-87
2022/04/23 01:11:18;;;;;;;18.95;8.43;;;7.10;74.00;;;;;;4085831;28;20052;-86
2022/04/23 01:13:18;;;;;;;17.25;7.97;;;7.10;74.10;;;;;;4081849;28;20765;-86
2022/04/23 01:15:21;;;;;;;12.38;7.40;;;7.10;74.30;;;;;;4084898;28;20119;-86
2022/04/23 01:17:21;;;;;;;15.85;8.25;;;7.20;74.30;;;;;;4095202;28;20031;-86
2022/04/23 01:19:22;;;;;;;18.92;8.40;;;7.10;74.60;;;;;;4089217;28;20043;-86
2022/04/23 01:21:23;;;;;;;15.52;8.15;;;7.10;74.70;;;;;;4102127;28;20112;-86
2022/04/23 01:23:24;;;;;;;14.70;7.95;;;7.10;74.50;;;;;;4100536;28;20026;-85
2022/04/23 01:25:26;;;;;;;19.42;7.95;;;7.20;74.40;;;;;;4088062;28;20514;-86
2022/04/23 01:27:30;;;;;;;15.88;8.30;;;7.10;74.40;;;;;;4100033;28;20066;-86
2022/04/23 01:29:31;;;;;;;20.50;7.80;;;7.10;74.60;;;;;;4091455;28;20114;-86
2022/04/23 01:31:32;;;;;;;15.32;8.70;;;7.00;75.00;;;;;;4104690;28;20075;-87
2022/04/23 01:33:34;;;;;;;18.42;7.88;;;6.90;75.10;;;;;;4105283;28;20146;-88
2022/04/23 01:35:34;;;;;;;17.23;8.25;;;6.90;75.20;;;;;;4106796;28;21072;-87
2022/04/23 01:37:35;;;;;;;22.33;8.32;;;6.90;75.20;;;;;;4090988;28;20137;-86
2022/04/23 01:39:36;;;;;;;15.18;8.23;;;7.00;75.20;;;;;;4105661;28;20600;-87
2022/04/23 01:41:37;;;;;;;18.15;8.18;;;7.00;75.00;;;;;;4103793;28;20669;-87
2022/04/23 01:43:37;;;;;;;16.60;8.25;;;7.10;74.90;;;;;;4089848;28;20521;-86
2022/04/23 01:45:39;;;;;;;16.42;7.80;;;7.00;75.10;;;;;;4106821;28;20034;-86
2022/04/23 01:47:39;;;;;;;13.88;8.18;;;7.00;75.20;;;;;;4089408;28;20034;-86
2022/04/23 01:49:41;;;;;;;13.15;8.23;;;7.00;75.30;;;;;;4091159;28;20027;-87
2022/04/23 01:51:42;;;;;;;20.10;9.25;;;7.00;75.70;;;;;;4090481;28;20035;-86
2022/04/23 01:53:42;;;;;;;20.40;8.77;;;7.00;75.90;;;;;;4090662;28;20108;-87
2022/04/23 01:55:43;;;;;;;18.58;8.43;;;7.00;75.80;;;;;;4101813;28;20038;-87
2022/04/23 01:57:44;;;;;;;18.35;9.23;;;7.10;75.70;;;;;;4082883;28;20038;-87
2022/04/23 01:59:44;;;;;;;17.95;8.57;;;7.00;75.90;;;;;;4105217;28;20041;-87
2022/04/23 02:01:46;;;;;;;19.33;8.45;;;7.00;75.80;;;;;;4090360;28;20396;-87
2022/04/23 02:03:47;;;;;;;17.38;8.85;;;7.00;76.00;;;;;;4101692;28;20031;-86
2022/04/23 02:05:47;;;;;;;19.65;8.52;;;7.00;76.10;;;;;;4083883;28;20108;-88
2022/04/23 02:07:48;;;;;;;15.52;8.48;;;7.00;76.20;;;;;;4106582;28;20027;-87
2022/04/23 02:09:49;;;;;;;15.85;9.05;;;6.90;76.30;;;;;;4087351;28;20395;-87
2022/04/23 02:11:50;;;;;;;20.02;9.02;;;6.90;76.50;;;;;;4104594;28;20533;-87
2022/04/23 02:13:51;;;;;;;24.75;8.82;;;7.00;77.00;;;;;;4091668;28;20059;-87
2022/04/23 02:15:51;;;;;;;13.45;8.25;;;6.90;77.00;;;;;;4085212;28;20035;-87
2022/04/23 02:17:52;;;;;;;17.77;7.72;;;6.90;77.00;;;;;;4087795;28;20133;-86
2022/04/23 02:19:53;;;;;;;18.52;8.10;;;6.90;77.00;;;;;;4096459;28;20494;-87
2022/04/23 02:21:53;;;;;;;14.82;7.03;;;6.90;77.60;;;;;;4090087;28;20034;-87
2022/04/23 02:23:54;;;;;;;16.30;8.00;;;6.80;77.00;;;;;;4097258;28;20034;-87
2022/04/23 02:25:55;;;;;;;20.70;7.65;;;6.70;77.10;;;;;;4091198;28;20110;-87
2022/04/23 02:27:55;;;;;;;14.18;7.13;;;6.70;76.90;;;;;;4086888;28;20055;-87
2022/04/23 02:29:56;;;;;;;17.63;7.60;;;6.80;76.90;;;;;;4106058;28;20019;-86
2022/04/23 02:31:57;;;;;;;14.75;7.65;;;6.70;76.80;;;;;;4097617;28;20039;-88
2022/04/23 02:33:57;;;;;;;18.90;7.68;;;6.70;77.10;;;;;;4071174;29;20031;-87
2022/04/23 02:35:58;;;;;;;15.20;7.55;;;6.60;77.10;;;;;;4110163;28;20501;-88
2022/04/23 02:38:01;;;;;;;16.65;7.47;;;6.60;77.10;;;;;;4092199;28;21120;-86
2022/04/23 02:40:06;;;;;;;22.48;7.93;;;6.50;77.30;;;;;;4091797;28;20050;-87
2022/04/23 02:42:09;;;;;;;17.45;7.22;;;6.60;77.10;;;;;;4093034;28;20037;-87
2022/04/23 02:44:09;;;;;;;17.50;7.80;;;6.50;77.00;;;;;;4086643;28;20102;-87
2022/04/23 02:46:14;;;;;;;13.20;6.68;;;6.50;77.20;;;;;;4084919;28;20071;-86
2022/04/23 02:48:15;;;;;;;17.58;7.10;;;6.60;77.10;;;;;;4096864;28;20034;-87
2022/04/23 02:50:25;;;;;;;16.30;7.32;;;6.60;76.80;;;;;;4091357;28;20102;-86
2022/04/23 02:52:26;;;;;;;15.13;7.25;;;6.70;76.70;;;;;;4103078;28;20026;-86
2022/04/23 02:54:27;;;;;;;12.43;6.78;;;6.70;76.70;;;;;;4090676;28;20513;-86
2022/04/23 02:56:33;;;;;;;19.48;8.38;;;6.70;76.40;;;;;;4089014;28;20035;-87
2022/04/23 02:58:34;;;;;;;18.73;7.63;;;6.60;76.60;;;;;;4103792;28;20031;-86
2022/04/23 03:00:38;;;;;;;14.63;7.20;;;6.60;76.80;;;;;;4087727;28;22089;-86
2022/04/23 03:02:40;;;;;;;21.85;7.90;;;6.50;76.80;;;;;;4102427;28;20031;-86
2022/04/23 03:04:42;;;;;;;24.65;8.27;;;6.50;77.00;;;;;;4085605;28;20035;-87
2022/04/23 03:06:45;;;;;;;19.38;7.50;;;6.50;77.10;;;;;;4088170;28;20043;-87
2022/04/23 03:08:46;;;;;;;18.13;8.05;;;6.70;76.90;;;;;;4091235;28;20063;-87
2022/04/23 03:10:46;;;;;;;14.55;7.97;;;6.60;76.70;;;;;;4089913;28;20796;-87
2022/04/23 03:12:47;;;;;;;14.50;7.43;;;6.50;77.10;;;;;;4087424;28;20067;-87
2022/04/23 03:14:48;;;;;;;14.55;7.47;;;6.60;77.00;;;;;;4097980;28;20518;-87
2022/04/23 03:16:48;;;;;;;18.52;7.80;;;6.60;76.90;;;;;;4086007;28;20487;-87
2022/04/23 03:18:50;;;;;;;20.20;8.32;;;6.70;77.00;;;;;;4088450;28;20411;-86
2022/04/23 03:20:51;;;;;;;17.35;8.00;;;6.60;76.90;;;;;;4086599;28;20182;-86
2022/04/23 03:22:51;;;;;;;21.05;8.50;;;6.60;77.10;;;;;;4092063;28;20135;-86
2022/04/23 03:24:52;;;;;;;13.73;7.88;;;6.70;76.80;;;;;;4093284;28;20031;-86
2022/04/23 03:26:52;;;;;;;13.77;7.30;;;6.60;77.00;;;;;;4088955;28;20107;-87
2022/04/23 03:28:53;;;;;;;16.50;7.45;;;6.50;77.10;;;;;;4091111;28;20042;-87
2022/04/23 03:30:54;;;;;;;13.85;7.72;;;6.60;77.30;;;;;;4088372;28;20027;-86
2022/04/23 03:32:55;;;;;;;28.48;8.00;;;6.50;77.10;;;;;;4090994;28;20031;-87
2022/04/23 03:34:56;;;;;;;18.85;7.53;;;6.50;77.10;;;;;;4090733;28;20062;-86
2022/04/23 03:36:56;;;;;;;16.23;7.40;;;6.60;76.90;;;;;;4086824;28;20031;-86
2022/04/23 03:38:57;;;;;;;14.43;8.15;;;6.60;76.80;;;;;;4104493;28;20034;-86
2022/04/23 03:40:58;;;;;;;17.25;8.02;;;6.60;77.20;;;;;;4081661;28;20608;-87
2022/04/23 03:42:59;;;;;;;19.23;8.13;;;6.60;78.10;;;;;;4091083;28;20031;-86
2022/04/23 03:44:59;;;;;;;18.35;7.82;;;6.60;77.30;;;;;;4104128;28;20026;-87
2022/04/23 03:47:03;;;;;;;20.50;8.05;;;6.70;77.20;;;;;;4085964;28;20495;-87
2022/04/23 03:49:03;;;;;;;;;;;6.60;77.20;;;;;;4087221;28;20099;-86
2022/04/23 03:51:04;;;;;;;17.05;7.47;;;6.70;77.60;;;;;;4086183;28;19985;-87
2022/04/23 03:53:05;;;;;;;16.05;7.45;;;6.70;77.10;;;;;;4084563;28;20061;-87
2022/04/23 03:55:09;;;;;;;14.55;8.07;;;6.70;76.70;;;;;;4081483;28;20146;-87
2022/04/23 03:57:09;;;;;;;16.05;8.00;;;6.60;76.80;;;;;;4101652;28;20137;-87
2022/04/23 03:59:10;;;;;;;14.48;6.85;;;6.60;76.90;;;;;;4071018;29;20060;-86
2022/04/23 04:01:10;;;;;;;14.68;6.95;;;6.70;77.00;;;;;;4081010;28;20104;-87
2022/04/23 04:03:12;;;;;;;18.42;8.18;;;6.70;76.70;;;;;;4104811;28;20039;-89
2022/04/23 04:05:14;;;;;;;13.52;6.53;;;6.60;76.50;;;;;;4107031;28;20102;-86
2022/04/23 04:07:18;;;;;;;17.73;8.35;;;6.60;76.70;;;;;;4103126;28;20417;-87
2022/04/23 04:09:19;;;;;;;23.80;8.50;;;6.60;76.90;;;;;;4087125;28;20027;-87
2022/04/23 04:11:19;;;;;;;17.17;7.72;;;6.70;76.90;;;;;;4101249;28;20106;-87
2022/04/23 04:13:20;;;;;;;21.13;7.35;;;6.60;76.90;;;;;;4085212;28;20058;-87
2022/04/23 04:15:21;;;;;;;16.23;8.63;;;6.60;76.80;;;;;;4088611;28;20035;-86
2022/04/23 04:17:22;;;;;;;18.10;7.65;;;6.60;77.10;;;;;;4099530;28;20114;-86
2022/04/23 04:19:22;;;;;;;19.80;7.35;;;6.60;77.10;;;;;;4087122;28;20063;-87
2022/04/23 04:21:23;;;;;;;17.08;7.07;;;6.60;77.40;;;;;;4086886;28;20093;-87
2022/04/23 04:23:26;;;;;;;14.52;7.13;;;6.70;76.90;;;;;;4101664;28;20276;-86
2022/04/23 04:25:27;;;;;;;16.45;7.40;;;6.70;77.00;;;;;;4093266;28;20035;-87
2022/04/23 04:27:28;;;;;;;17.50;8.00;;;6.70;76.90;;;;;;4081156;28;20045;-87
2022/04/23 04:29:29;;;;;;;15.15;7.50;;;6.80;77.30;;;;;;4102121;28;20053;-87
2022/04/23 04:31:48;;;;;;;23.30;7.75;;;6.70;77.30;;;;;;4087482;28;20035;-87
2022/04/23 04:33:49;;;;;;;17.25;8.15;;;6.70;77.20;;;;;;4091489;28;20509;-86
2022/04/23 04:35:50;;;;;;;17.25;7.78;;;6.70;77.30;;;;;;4102003;28;20054;-85
2022/04/23 04:37:50;;;;;;;15.55;8.15;;;6.70;77.10;;;;;;4102843;28;20042;-86
2022/04/23 04:39:51;;;;;;;21.00;7.97;;;6.70;76.80;;;;;;4085644;28;20027;-87
2022/04/23 04:41:52;;;;;;;20.95;7.35;;;6.60;76.70;;;;;;4087137;28;20078;-87
2022/04/23 04:43:53;;;;;;;18.77;8.65;;;6.70;76.70;;;;;;4084496;28;20618;-87
2022/04/23 04:45:53;;;;;;;15.88;7.70;;;6.70;76.60;;;;;;4088331;28;20040;-87
2022/04/23 04:47:54;;;;;;;18.98;7.65;;;6.70;76.70;;;;;;4102246;28;20041;-87
2022/04/23 04:49:55;;;;;;;17.80;8.48;;;6.70;76.70;;;;;;4099720;28;20116;-86
2022/04/23 04:51:56;;;;;;;17.55;8.63;;;6.70;76.70;;;;;;4092627;28;20109;-87
2022/04/23 04:53:57;;;;;;;18.33;7.88;;;6.80;76.60;;;;;;4090109;28;20504;-87
2022/04/23 04:55:58;;;;;;;18.10;8.05;;;6.70;76.60;;;;;;4108773;28;20027;-87
2022/04/23 04:57:58;;;;;;;21.17;7.90;;;6.80;76.50;;;;;;4093944;28;20043;-88
2022/04/23 04:59:59;;;;;;;21.77;7.72;;;6.80;76.30;;;;;;4110979;28;20030;-88
2022/04/23 05:02:00;;;;;;;22.27;8.50;;;6.90;76.30;;;;;;4091981;28;20042;-88
2022/04/23 05:04:02;;;;;;;19.30;7.90;;;6.90;76.20;;;;;;4094019;28;20027;-88
2022/04/23 05:06:03;;;;;;;19.38;7.90;;;6.90;76.20;;;;;;4093099;28;20077;-88
2022/04/23 05:08:04;;;;;;;14.88;6.68;;;6.90;76.40;;;;;;4095978;28;20035;-88
2022/04/23 05:10:05;;;;;;;18.35;8.13;;;7.00;76.40;;;;;;4096869;28;20058;-87
2022/04/23 05:12:06;;;;;;;17.40;7.80;;;7.00;76.40;;;;;;4094929;28;22523;-88
2022/04/23 05:14:07;;;;;;;19.52;8.77;;;7.00;76.20;;;;;;4096790;28;20031;-86
2022/04/23 05:16:08;;;;;;;12.98;6.88;;;7.10;76.00;;;;;;4099680;28;20031;-86
2022/04/23 05:18:09;;;;;;;20.70;8.15;;;7.10;75.90;;;;;;4096283;28;20023;-88
2022/04/23 05:20:10;;;;;;;16.05;8.38;;;7.20;75.80;;;;;;4096360;28;20031;-89
2022/04/23 05:22:14;;;;;;;16.65;7.88;;;7.20;75.20;;;;;;4097591;28;20282;-88
2022/04/23 05:24:14;;;;;;;;;;;7.30;75.10;;;;;;4094723;28;20150;-87
2022/04/23 05:26:15;;;;;;;14.70;7.60;;;7.30;75.00;;;;;;4090245;28;19922;-88
2022/04/23 05:28:16;;;;;;;14.23;6.68;;;7.40;74.90;;;;;;4102611;28;20063;-88
2022/04/23 05:30:17;;;;;;;14.45;7.40;;;7.50;74.80;;;;;;4094094;28;20043;-88
2022/04/23 05:32:17;;;;;;;17.85;7.50;;;7.50;74.80;;;;;;4108284;28;20034;-87
2022/04/23 05:34:18;;;;;;;22.75;8.07;;;7.60;74.90;;;;;;4092183;28;20090;-87
2022/04/23 05:36:19;;;;;;;18.13;7.60;;;7.50;74.70;;;;;;4094380;28;20396;-88
2022/04/23 05:38:21;;;;;;;19.50;7.60;;;7.70;75.00;;;;;;4091528;28;20020;-87
2022/04/23 05:40:21;;;;;;;19.98;7.30;;;7.70;74.60;;;;;;4087055;28;20879;-88
2022/04/23 05:42:22;;;;;;;22.02;7.57;;;7.80;74.20;;;;;;4085179;28;20038;-88
2022/04/23 05:44:23;;;;;;;16.80;7.15;;;7.80;73.90;;;;;;4087865;28;20023;-87
2022/04/23 05:46:23;;;;;;;17.02;6.68;;;7.90;74.20;;;;;;4084454;28;20024;-89
2022/04/23 05:48:24;;;;;;;15.07;7.05;;;7.90;74.10;;;;;;4090946;28;20031;-88
2022/04/23 05:50:26;;;;;;;11.23;6.38;;;8.00;73.70;;;;;;4085234;28;20024;-88
2022/04/23 05:52:27;;;;;;;17.98;6.60;;;8.00;73.40;;;;;;4089977;28;20027;-87
2022/04/23 05:54:28;;;;;;;15.27;6.55;;;7.90;72.90;;;;;;4084869;28;20031;-88
2022/04/23 05:56:29;;;;;;;17.23;6.47;;;8.00;73.10;;;;;;4088639;28;20050;-89
2022/04/23 05:58:29;;;;;;;16.52;6.30;;;8.10;73.40;;;;;;4081720;28;20055;-87
2022/04/23 06:00:30;;;;;;;18.58;7.03;;;8.10;72.70;;;;;;4102835;28;20034;-88
2022/04/23 06:02:31;;;;;;;13.57;5.70;;;8.00;72.30;;;;;;4086431;28;20039;-87
2022/04/23 06:04:32;;;;;;;17.63;6.38;;;8.10;72.70;;;;;;4089667;28;20102;-88
2022/04/23 06:06:33;;;;;;;15.20;5.72;;;8.20;72.50;;;;;;4101303;28;20736;-87
2022/04/23 06:08:34;;;;;;;14.18;5.72;;;8.20;72.40;;;;;;4102426;28;21381;-88
2022/04/23 06:10:35;;;;;;;16.23;6.03;;;8.10;72.90;;;;;;4091571;28;20042;-88
2022/04/23 06:12:36;;;;;;;17.02;6.25;;;8.20;73.70;;;;;;4084170;28;20031;-88
2022/04/23 06:14:37;;;;;;;16.98;6.22;;;8.30;74.10;;;;;;4091549;28;20031;-82
2022/04/23 06:16:38;;;;;;;15.07;6.20;;;8.30;73.20;;;;;;4101655;28;20070;-87
2022/04/23 06:18:39;;;;;;;17.40;6.43;;;8.50;72.80;;;;;;4086729;28;20043;-87
2022/04/23 06:20:40;;;;;;;12.15;5.93;;;8.40;72.20;;;;;;4085719;28;20719;-86
2022/04/23 06:22:41;;;;;;;14.13;6.38;;;8.50;71.90;;;;;;4089717;28;20030;-88
2022/04/23 06:24:42;;;;;;;11.45;5.38;;;8.60;71.80;;;;;;4093238;28;20428;-87
2022/04/23 06:26:43;;;;;;;14.15;6.30;;;8.60;72.00;;;;;;4099838;28;20038;-87
2022/04/23 06:28:44;;;;;;;14.98;6.47;;;8.70;71.50;;;;;;4088879;28;20035;-87
2022/04/23 06:30:44;;;;;;;16.45;6.07;;;8.70;71.10;;;;;;4087809;28;20035;-87
2022/04/23 06:32:45;;;;;;;17.05;6.70;;;8.70;70.80;;;;;;4088257;28;20100;-88
2022/04/23 06:34:46;;;;;;;15.80;5.93;;;8.70;70.80;;;;;;4085590;28;20042;-88
2022/04/23 06:36:46;;;;;;;10.57;5.47;;;8.70;70.80;;;;;;4089176;28;20031;-87
2022/04/23 06:38:47;;;;;;;11.90;5.50;;;8.60;70.70;;;;;;4087819;28;20067;-88
2022/04/23 06:40:48;;;;;;;11.95;5.63;;;8.70;71.10;;;;;;4091223;28;20518;-88
2022/04/23 06:42:48;;;;;;;17.08;5.72;;;8.70;71.10;;;;;;4088572;28;20106;-86
2022/04/23 06:44:49;;;;;;;13.38;5.63;;;8.80;71.50;;;;;;4100883;28;20039;-86
2022/04/23 06:46:50;;;;;;;14.93;6.10;;;8.60;71.30;;;;;;4082536;28;21096;-87
2022/04/23 06:48:50;;;;;;;18.42;5.32;;;8.70;71.60;;;;;;4097773;28;20049;-87
2022/04/23 06:50:51;;;;;;;12.40;5.57;;;8.70;72.50;;;;;;4085980;28;20639;-87
2022/04/23 06:52:52;;;;;;;17.80;5.68;;;8.80;71.50;;;;;;4100014;28;20054;-87
2022/04/23 06:54:54;;;;;;;13.50;5.03;;;8.90;71.30;;;;;;4086241;28;20465;-87
2022/04/23 06:56:55;;;;;;;10.73;5.50;;;8.90;71.30;;;;;;4086276;28;20032;-87
2022/04/23 06:58:56;;;;;;;13.85;4.80;;;9.00;71.30;;;;;;4102585;28;20049;-87
2022/04/23 07:00:58;;;;;;;12.77;4.95;;;9.00;70.90;;;;;;4088888;28;20031;-87
2022/04/23 07:02:59;;;;;;;12.63;5.03;;;9.00;71.10;;;;;;4096800;28;20077;-87
2022/04/23 07:04:59;;;;;;;15.13;5.18;;;9.00;70.70;;;;;;4099256;28;20446;-86
2022/04/23 07:07:00;;;;;;;8.15;4.63;;;9.10;70.10;;;;;;4099495;28;20034;-86
2022/04/23 07:09:01;;;;;;;14.05;5.15;;;9.10;70.10;;;;;;4084457;28;21301;-86
2022/04/23 07:11:02;;;;;;;9.95;4.40;;;9.00;70.40;;;;;;4088517;28;20054;-87
2022/04/23 07:13:03;;;;;;;10.93;5.18;;;9.00;70.40;;;;;;4088592;28;20705;-87
2022/04/23 07:15:05;;;;;;;15.75;4.90;;;8.90;70.20;;;;;;4087377;28;20415;-88
2022/04/23 07:17:06;;;;;;;12.73;5.20;;;9.00;70.40;;;;;;4086894;28;20046;-87
2022/04/23 07:19:09;;;;;;;13.55;5.50;;;8.90;70.50;;;;;;4103997;28;20039;-87
2022/04/23 07:21:09;;;;;;;13.23;5.93;;;8.90;70.30;;;;;;4098208;28;20031;-87
2022/04/23 07:25:30;;;;;;;10.68;5.30;;;8.80;70.20;;;;;;4094540;28;20039;-88
2022/04/23 07:27:30;;;;;;;10.95;5.20;;;8.80;70.30;;;;;;4096136;28;20534;-87
2022/04/23 07:29:31;;;;;;;12.52;5.10;;;8.80;70.60;;;;;;4101474;28;20049;-88
2022/04/23 07:31:32;;;;;;;10.82;5.03;;;8.90;70.80;;;;;;4096145;28;20495;-89
2022/04/23 07:38:13;;;;;;;15.40;5.85;;;8.80;71.40;;;;;;4105267;28;20031;-89
2022/04/23 07:40:13;;;;;;;11.43;5.53;;;8.90;71.30;;;;;;4112230;28;20031;-87
2022/04/23 07:42:14;;;;;;;10.25;5.60;;;8.90;70.90;;;;;;4091860;28;20043;-89
2022/04/23 07:44:14;;;;;;;9.02;5.03;;;8.70;70.40;;;;;;4088030;28;20495;-89
2022/04/23 07:46:15;;;;;;;11.48;5.68;;;8.80;70.60;;;;;;4091601;28;20522;-88
2022/04/23 07:48:16;;;;;;;10.45;5.60;;;8.70;70.20;;;;;;4106939;28;20035;-88
2022/04/23 07:50:16;;;;;;;10.32;5.75;;;8.90;71.20;;;;;;4098592;28;20038;-88
2022/04/23 07:52:17;;;;;;;16.13;5.72;;;8.80;70.40;;;;;;4094223;28;20043;-90
2022/04/23 07:54:18;;;;;;;13.90;5.93;;;8.80;69.80;;;;;;4111504;28;20030;-89
2022/04/23 07:56:18;;;;;;;14.32;5.80;;;8.80;70.10;;;;;;4095794;28;20032;-88
2022/04/23 07:58:19;;;;;;;10.57;5.55;;;8.80;70.30;;;;;;4111105;28;20054;-81
2022/04/23 08:00:20;;;;;;;9.50;5.43;;;8.80;70.00;;;;;;4099702;28;20031;-81
2022/04/23 08:02:20;;;;;;;11.95;5.55;;;8.90;70.20;;;;;;4089768;28;20069;-81
2022/04/23 08:04:21;;;;;;;11.45;5.18;;;8.90;70.00;;;;;;4087129;28;20023;-80
2022/04/23 08:06:22;;;;;;;12.63;5.50;;;8.90;70.00;;;;;;4089040;28;20031;-82
2022/04/23 08:08:23;;;;;;;13.32;5.55;;;8.90;70.00;;;;;;4093943;28;20042;-81
2022/04/23 08:10:24;;;;;;;13.18;5.18;;;8.80;69.90;;;;;;4110417;28;20102;-82
2022/04/23 08:12:24;;;;;;;12.25;5.25;;;8.90;69.90;;;;;;4094414;28;20038;-81
2022/04/23 08:14:25;;;;;;;10.57;5.45;;;8.90;69.90;;;;;;4111946;28;20038;-82
2022/04/23 08:16:29;;;;;;;7.18;4.30;;;8.90;69.80;;;;;;4105657;28;20204;-80
2022/04/23 08:18:30;;;;;;;10.38;5.45;;;8.80;69.20;;;;;;4098993;28;20738;-81
2022/04/23 08:20:31;;;;;;;17.38;5.85;;;8.90;69.80;;;;;;4090080;28;20041;-81
2022/04/23 08:22:31;;;;;;;10.77;5.65;;;8.90;70.00;;;;;;4095033;28;20153;-81
2022/04/23 08:24:35;;;;;;;14.20;6.28;;;8.90;70.00;;;;;;4090969;28;20562;-81
2022/04/23 08:26:36;;;;;;;13.15;5.32;;;8.90;69.80;;;;;;4087912;28;20436;-81
2022/04/23 08:30:56;;;;;;;11.25;5.53;;;8.90;69.00;;;;;;4102306;28;20031;-81
2022/04/23 08:32:57;;;;;;;12.10;5.30;;;9.00;69.10;;;;;;4091913;28;20046;-81
2022/04/23 08:34:59;;;;;;;12.13;5.95;;;8.90;69.20;;;;;;4093279;28;20038;-81
2022/04/23 08:36:59;;;;;;;12.50;5.68;;;9.00;69.10;;;;;;4090957;28;20407;-81
2022/04/23 08:39:00;;;;;;;11.63;6.32;;;9.00;69.10;;;;;;4092361;28;20110;-80
2022/04/23 08:41:04;;;;;;;14.35;5.80;;;9.00;68.80;;;;;;4098252;28;20112;-81
2022/04/23 08:43:09;;;;;;;9.82;5.75;;;9.10;68.80;;;;;;4102145;28;20038;-81
2022/04/23 08:45:12;;;;;;;18.48;7.13;;;9.10;69.10;;;;;;4089372;29;20042;-82
2022/04/23 08:47:13;;;;;;;15.48;6.03;;;9.10;69.40;;;;;;4105976;28;20054;-80
2022/04/23 08:49:16;;;;;;;11.98;5.82;;;9.20;69.50;;;;;;4098721;28;20043;-81
2022/04/23 08:51:22;;;;;;;11.73;5.45;;;9.20;69.50;;;;;;4102694;28;20039;-80
2022/04/23 08:53:27;;;;;;;9.32;5.63;;;9.10;69.00;;;;;;4099658;28;20404;-81
2022/04/23 08:55:28;;;;;;;13.45;5.13;;;9.30;69.60;;;;;;4104887;28;20045;-81
2022/04/23 08:57:29;;;;;;;12.85;6.00;;;9.40;70.40;;;;;;4099122;28;20523;-81
2022/04/23 08:59:30;;;;;;;15.07;6.07;;;9.40;69.30;;;;;;4095582;28;20032;-82
2022/04/23 09:01:31;;;;;;;8.40;5.32;;;9.50;68.90;;;;;;4094539;28;20162;-81
2022/04/23 09:03:32;;;;;;;11.40;6.35;;;9.50;68.40;;;;;;4100616;28;20035;-80
2022/04/23 09:05:32;;;;;;;11.63;5.57;;;9.60;68.50;;;;;;4101732;28;20201;-80
2022/04/23 09:07:33;;;;;;;13.95;6.40;;;9.80;68.70;;;;;;4118142;28;20038;-79
2022/04/23 09:09:34;;;;;;;13.80;6.68;;;9.70;67.20;;;;;;4102999;28;20036;-80
2022/04/23 09:11:35;;;;;;;13.65;6.82;;;9.50;67.80;;;;;;4095353;28;20047;-80
2022/04/23 09:13:36;;;;;;;11.57;6.35;;;9.60;67.20;;;;;;4113497;28;20350;-80
2022/04/23 09:24:55;;;;;;;11.23;6.30;;;9.70;67.20;;;;;;4097345;28;20040;-82
2022/04/23 09:27:05;;;;;;;10.45;6.18;;;9.70;67.50;;;;;;4113797;28;20124;-80
2022/04/23 09:29:17;;;;;;;10.68;6.35;;;9.60;67.60;;;;;;4114228;28;20054;-81
2022/04/23 09:31:18;;;;;;;10.25;6.32;;;9.60;66.70;;;;;;4102128;28;20122;-81
2022/04/23 09:33:24;;;;;;;12.57;6.78;;;9.60;66.70;;;;;;4097492;28;20062;-81
2022/04/23 09:35:25;;;;;;;10.55;6.20;;;9.50;66.80;;;;;;4100926;28;20053;-80
2022/04/23 09:38:11;;;;;;;11.25;6.32;;;9.70;67.40;;;;;;4100831;28;20066;-83
2022/04/23 09:39:52;;;;;;;11.25;6.82;;;9.60;66.60;;;;;;4099837;28;20375;-81
2022/04/23 09:41:52;;;;;;;12.32;7.63;;;9.50;66.80;;;;;;4113460;28;20045;-82
2022/04/23 09:44:10;;;;;;;18.00;7.50;;;9.60;67.80;;;;;;4097089;28;20071;-80
2022/04/23 09:46:12;;;;;;;15.70;7.50;;;9.70;66.90;;;;;;4108949;28;20596;-81
2022/04/23 09:48:13;;;;;;;13.20;6.75;;;9.70;67.00;;;;;;4114414;28;20057;-83
2022/04/23 09:50:15;;;;;;;13.82;6.97;;;9.80;67.30;;;;;;4099655;28;20039;-81
2022/04/23 09:52:17;;;;;;;14.93;6.65;;;9.80;66.70;;;;;;4107692;28;20058;-81
2022/04/23 09:54:17;;;;;;;15.50;7.05;;;9.70;66.20;;;;;;4096811;28;20050;-82
2022/04/23 09:56:19;;;;;;;13.13;6.95;;;9.70;66.30;;;;;;4110180;28;20035;-81
2022/04/23 09:58:21;;;;;;;13.15;6.57;;;9.80;66.70;;;;;;4102307;28;20043;-81
2022/04/23 10:00:21;;;;;;;11.75;6.85;;;9.90;66.30;;;;;;4089704;28;20042;-81
2022/04/23 10:02:24;;;;;;;16.85;7.93;;;9.90;66.20;;;;;;4096428;28;20748;-82
2022/04/23 10:04:27;;;;;;;11.73;6.43;;;10.10;66.20;;;;;;4116396;28;20538;-82
2022/04/23 10:06:35;;;;;;;17.08;7.47;;;10.10;65.70;;;;;;4089179;28;20066;-82
2022/04/23 10:08:41;;;;;;;22.25;7.68;;;10.10;64.50;;;;;;4101607;28;20046;-82
2022/04/23 10:10:51;;;;;;;11.18;6.88;;;10.10;63.80;;;;;;4091100;28;20492;-83
2022/04/23 10:12:54;;;;;;;13.20;7.20;;;10.10;64.50;;;;;;4098226;28;20015;-84
2022/04/23 10:14:57;;;;;;;16.80;7.55;;;10.10;63.50;;;;;;4098380;28;20508;-84
2022/04/23 10:16:57;;;;;;;16.00;7.55;;;10.00;62.90;;;;;;4097539;28;20031;-83
2022/04/23 10:18:59;;;;;;;14.00;7.30;;;10.10;63.20;;;;;;4096396;28;20070;-83
2022/04/23 10:21:07;;;;;;;12.82;7.53;;;10.00;62.50;;;;;;4095223;28;20031;-82
2022/04/23 10:23:20;;;;;;;10.95;6.47;;;10.10;62.50;;;;;;4111200;28;20038;-83
2022/04/23 10:25:33;;;;;;;11.85;6.13;;;10.20;62.90;;;;;;4092413;28;20580;-82
2022/04/23 10:27:34;;;;;;;12.75;7.05;;;10.30;62.90;;;;;;4094880;28;20043;-83
2022/04/23 10:29:36;;;;;;;18.73;7.30;;;10.30;62.50;;;;;;4106664;28;20083;-86
2022/04/23 10:31:37;;;;;;;13.38;6.47;;;10.30;62.70;;;;;;4095394;28;20036;-85
2022/04/23 10:33:54;;;;;;;12.68;6.18;;;10.30;62.20;;;;;;4085411;28;20344;-85
2022/04/23 10:36:08;;;;;;;14.13;7.40;;;10.30;62.30;;;;;;4091412;28;20404;-85
2022/04/23 10:38:19;;;;;;;14.50;6.88;;;10.40;64.60;;;;;;4089164;28;20445;-86
2022/04/23 10:40:21;;;;;;;13.70;6.95;;;10.50;64.60;;;;;;4090872;28;20931;-84
2022/04/23 10:42:24;;;;;;;15.93;6.80;;;10.60;64.00;;;;;;4090019;28;20057;-86
2022/04/23 10:44:30;;;;;;;18.23;7.82;;;10.60;62.70;;;;;;4096857;28;20071;-86
2022/04/23 10:46:36;;;;;;;14.30;7.18;;;10.70;61.60;;;;;;4083235;28;20035;-87
2022/04/23 10:48:44;;;;;;;17.60;7.65;;;10.70;59.80;;;;;;4088674;28;20087;-86
2022/04/23 10:51:02;;;;;;;12.95;7.15;;;10.70;59.90;;;;;;4099903;28;20030;-88
2022/04/23 10:53:03;;;;;;;14.43;7.70;;;10.70;60.70;;;;;;4097376;28;20038;-87